createdAt,value
2019-02-06T00:00:01.588Z,92.27
2019-02-06T00:05:14.435Z,92.32
2019-02-06T00:10:01.628Z,92.42
2019-02-06T00:15:02.133Z,92.02
2019-02-06T00:20:01.602Z,92.13
2019-02-06T00:25:01.922Z,92.17
2019-02-06T00:30:01.201Z,92.06
2019-02-06T00:35:01.599Z,91.94
2019-02-06T00:40:01.959Z,91.79
2019-02-06T00:45:01.271Z,92.01
2019-02-06T00:50:01.636Z,92.06
2019-02-06T00:55:02.012Z,92.2
2019-02-06T01:00:01.323Z,92.28
2019-02-06T01:05:01.646Z,92.2
2019-02-06T01:10:01.936Z,92.38
2019-02-06T01:15:01.303Z,92.37
2019-02-06T01:20:01.855Z,92.26
2019-02-06T01:25:01.359Z,92.13
2019-02-06T01:30:01.688Z,92.22
2019-02-06T01:35:02.453Z,92.45
2019-02-06T01:40:01.467Z,92.58
2019-02-06T01:45:01.816Z,92.54
2019-02-06T01:50:02.467Z,92.72
2019-02-06T01:55:01.455Z,92.64
2019-02-06T02:00:01.899Z,92.53
2019-02-06T02:05:01.582Z,92.52
2019-02-06T02:10:01.629Z,92.26
2019-02-06T02:15:01.366Z,92.01
2019-02-06T02:20:01.963Z,91.98
2019-02-06T02:25:01.886Z,91.75
2019-02-06T02:30:02.171Z,91.76
2019-02-06T02:35:01.508Z,91.58
2019-02-06T02:40:01.917Z,91.51
2019-02-06T02:45:01.231Z,91.3
2019-02-06T02:50:01.611Z,91.26
2019-02-06T02:55:01.933Z,90.83
2019-02-06T03:00:01.251Z,90.33
2019-02-06T03:05:01.572Z,89.96
2019-02-06T03:10:01.907Z,89.68
2019-02-06T03:15:01.341Z,89.29
2019-02-06T03:20:01.664Z,89.23
2019-02-06T03:25:02.127Z,89.13
2019-02-06T03:30:01.355Z,88.97
2019-02-06T03:35:01.661Z,89.06
2019-02-06T03:40:01.644Z,89.13
2019-02-06T03:45:02.031Z,89.1
2019-02-06T03:50:01.301Z,89.01
2019-02-06T03:55:01.601Z,88.83
2019-02-06T04:00:01.952Z,88.99
2019-02-06T04:05:01.313Z,88.93
2019-02-06T04:10:01.662Z,88.71
2019-02-06T04:15:02.362Z,88.46
2019-02-06T04:20:01.361Z,88.52
2019-02-06T04:25:01.806Z,88.1
2019-02-06T04:30:02.305Z,87.34
2019-02-06T04:35:02.084Z,86.73
2019-02-06T04:40:01.353Z,86.33
2019-02-06T04:45:01.736Z,86.08
2019-02-06T04:50:02.021Z,85.37
2019-02-06T04:55:01.318Z,85.19
2019-02-06T05:00:01.666Z,85.14
2019-02-06T05:05:02.084Z,85
2019-02-06T05:10:01.422Z,84.71
2019-02-06T05:15:01.719Z,85.65
2019-02-06T05:20:01.992Z,86.69
2019-02-06T05:25:01.288Z,87.49
2019-02-06T05:30:01.526Z,87.7
2019-02-06T05:35:02.012Z,88.14
2019-02-06T05:40:01.433Z,88.22
2019-02-06T05:45:01.744Z,88.33
2019-02-06T05:50:02.037Z,87.82
2019-02-06T05:55:04.947Z,86.97
2019-02-06T06:00:01.683Z,86.52
2019-02-06T06:05:02.057Z,85.84
2019-02-06T06:10:01.374Z,85.64
2019-02-06T06:15:01.742Z,85.67
2019-02-06T06:20:02.061Z,86.21
2019-02-06T06:25:01.337Z,86.54
2019-02-06T06:30:01.646Z,87.09
2019-02-06T06:35:02.002Z,87.17
2019-02-06T06:40:01.285Z,87.22
2019-02-06T06:45:01.588Z,87.5
2019-02-06T06:50:01.892Z,87.28
2019-02-06T06:55:01.216Z,87.16
2019-02-06T07:00:01.506Z,86.57
2019-02-06T07:05:01.799Z,86.17
2019-02-06T07:10:02.108Z,85.79
2019-02-06T07:15:01.411Z,85.51
2019-02-06T07:20:01.721Z,85.11
2019-02-06T07:25:01.993Z,84.75
2019-02-06T07:30:01.286Z,84.3
2019-02-06T07:35:01.612Z,83.89
2019-02-06T07:40:01.912Z,83.06
2019-02-06T07:45:01.211Z,82.26
2019-02-06T07:50:01.525Z,81.92
2019-02-06T07:55:02.183Z,81.38
2019-02-06T08:00:02.009Z,80.7
2019-02-06T08:05:01.511Z,80.27
2019-02-06T08:10:02.102Z,79.71
2019-02-06T08:15:01.963Z,79.18
2019-02-06T08:20:01.280Z,78.36
2019-02-06T08:25:01.908Z,77.84
2019-02-06T08:30:01.720Z,77.64
2019-02-06T08:35:02.023Z,77.02
2019-02-06T08:40:01.306Z,76.72
2019-02-06T08:45:01.636Z,75.69
2019-02-06T08:50:01.921Z,75.07
2019-02-06T08:55:01.213Z,74.66
2019-02-06T09:00:01.501Z,73.89
2019-02-06T09:05:01.858Z,73.36
2019-02-06T09:10:02.123Z,74.17
2019-02-06T09:15:01.384Z,74.39
2019-02-06T09:20:01.702Z,73.52
2019-02-06T09:25:02.039Z,72.75
2019-02-06T09:30:01.326Z,71.92
2019-02-06T09:35:01.654Z,71.38
2019-02-06T09:40:01.950Z,72
2019-02-06T09:45:01.252Z,72.49
2019-02-06T09:50:01.544Z,73.08
2019-02-06T09:55:01.833Z,73.31
2019-02-06T10:00:02.118Z,73.23
2019-02-06T10:05:01.368Z,72.95
2019-02-06T10:10:01.651Z,72.69
2019-02-06T10:15:01.939Z,71.92
2019-02-06T10:20:01.286Z,71.62
2019-02-06T10:25:01.561Z,71.13
2019-02-06T10:30:04.147Z,70.29
2019-02-06T10:35:01.468Z,69.82
2019-02-06T10:40:01.828Z,70.04
2019-02-06T10:45:02.113Z,69.15
2019-02-06T10:50:01.798Z,69.21
2019-02-06T10:55:01.732Z,68.6
2019-02-06T11:00:02.028Z,68.18
2019-02-06T11:05:01.669Z,64.64
2019-02-06T11:10:01.565Z,62.43
2019-02-06T11:15:01.873Z,58.87
2019-02-06T11:20:02.441Z,59.91
2019-02-06T11:25:01.259Z,61.29
2019-02-06T11:30:01.555Z,61.17
2019-02-06T11:35:02.869Z,62.09
2019-02-06T11:40:02.141Z,61.13
2019-02-06T11:45:01.422Z,60.94
2019-02-06T11:50:01.724Z,54.14
2019-02-06T11:55:02.007Z,53.9
2019-02-06T12:00:01.306Z,53.14
2019-02-06T12:05:01.607Z,50.76
2019-02-06T12:10:10.266Z,50.8
2019-02-06T12:15:01.640Z,48.81
2019-02-06T12:20:01.903Z,48.03
2019-02-06T12:25:01.219Z,48.49
2019-02-06T12:30:01.535Z,48.73
2019-02-06T12:35:01.853Z,48.68
2019-02-06T12:40:02.109Z,47.65
2019-02-06T12:45:01.388Z,47.17
2019-02-06T12:50:02.015Z,47.68
2019-02-06T12:55:01.792Z,47.23
2019-02-06T13:00:02.059Z,46.55
2019-02-06T13:05:01.668Z,47.07
2019-02-06T13:10:01.587Z,46.9
2019-02-06T13:15:01.878Z,47.41
2019-02-06T13:20:02.462Z,47.7
2019-02-06T13:25:01.228Z,49.98
2019-02-06T13:30:01.561Z,50.2
2019-02-06T13:35:01.858Z,50.79
2019-02-06T13:40:02.147Z,52.73
2019-02-06T13:45:01.418Z,51.45
2019-02-06T13:50:01.739Z,52.86
2019-02-06T13:55:02.041Z,53.15
2019-02-06T14:00:01.388Z,53
2019-02-06T14:05:01.710Z,54.4
2019-02-06T14:10:01.993Z,54.36
2019-02-06T14:15:01.272Z,53.38
2019-02-06T14:20:01.749Z,53.28
2019-02-06T14:25:02.021Z,52.51
2019-02-06T14:30:01.299Z,53.61
2019-02-06T14:35:01.693Z,53.82
2019-02-06T14:40:02.032Z,55.61
2019-02-06T14:45:01.581Z,55.18
2019-02-06T14:50:01.457Z,54.97
2019-02-06T14:55:01.600Z,55.67
2019-02-06T15:00:01.969Z,56.69
2019-02-06T15:05:01.281Z,56.27
2019-02-06T15:10:01.581Z,57.13
2019-02-06T15:15:01.874Z,57.59
2019-02-06T15:20:01.255Z,58.53
2019-02-06T15:25:01.602Z,58.88
2019-02-06T15:30:01.924Z,59.33
2019-02-06T15:35:01.273Z,60.21
2019-02-06T15:40:01.797Z,60.41
2019-02-06T15:45:01.383Z,61.56
2019-02-06T15:50:01.644Z,62.07
2019-02-06T15:55:01.970Z,62.64
2019-02-06T16:00:01.258Z,63.72
2019-02-06T16:05:01.561Z,63.5
2019-02-06T16:10:01.839Z,62.87
2019-02-06T16:15:02.153Z,62.91
2019-02-06T16:20:08.445Z,62.6
2019-02-06T16:25:01.389Z,62.79
2019-02-06T16:30:01.694Z,63.27
2019-02-06T16:35:02.045Z,64.06
2019-02-06T16:40:01.292Z,64.76
2019-02-06T16:45:01.688Z,65.68
2019-02-06T16:50:02.277Z,66.28
2019-02-06T16:55:01.939Z,67.04
2019-02-06T17:00:01.203Z,67.74
2019-02-06T17:05:01.531Z,68.7
2019-02-06T17:10:01.878Z,68.79
2019-02-06T17:15:02.144Z,69.28
2019-02-06T17:20:01.440Z,69.72
2019-02-06T17:25:01.711Z,70.13
2019-02-06T17:30:02.706Z,70.97
2019-02-06T17:35:01.660Z,71.01
2019-02-06T17:40:02.187Z,71.8
2019-02-06T17:45:01.540Z,72.25
2019-02-06T17:50:01.860Z,73.14
2019-02-06T17:55:02.124Z,73.69
2019-02-06T18:00:01.395Z,74.24
2019-02-06T18:05:01.677Z,74.29
2019-02-06T18:10:01.986Z,74.72
2019-02-06T18:15:01.266Z,75.65
2019-02-06T18:20:01.569Z,76.3
2019-02-06T18:25:01.848Z,77.49
2019-02-06T18:30:02.118Z,78.45
2019-02-06T18:35:03.859Z,79.08
2019-02-06T18:40:01.221Z,79.55
2019-02-06T18:45:01.677Z,80.4
2019-02-06T18:50:02.041Z,80.98
2019-02-06T18:55:01.378Z,82.22
2019-02-06T19:00:01.941Z,82.41
2019-02-06T19:05:01.529Z,82.84
2019-02-06T19:10:02.013Z,83.58
2019-02-06T19:15:01.328Z,84.04
2019-02-06T19:20:01.886Z,84.72
2019-02-06T19:25:01.642Z,85.33
2019-02-06T19:30:01.989Z,85.63
2019-02-06T19:35:01.548Z,85.92
2019-02-06T19:40:01.451Z,86.62
2019-02-06T19:45:01.785Z,87.09
2019-02-06T19:50:02.110Z,87.49
2019-02-06T19:55:01.415Z,87.94
2019-02-06T20:00:01.750Z,88.12
2019-02-06T20:05:02.104Z,88.42
2019-02-06T20:10:01.386Z,88.35
2019-02-06T20:15:01.705Z,88.46
2019-02-06T20:20:02.007Z,88.23
2019-02-06T20:25:01.635Z,87.68
2019-02-06T20:30:01.517Z,85.84
2019-02-06T20:35:01.832Z,85.77
2019-02-06T20:40:02.457Z,85.86
2019-02-06T20:45:01.399Z,85.93
2019-02-06T20:50:01.667Z,85.86
2019-02-06T20:55:02.121Z,85.83
2019-02-06T21:00:01.423Z,85.88
2019-02-06T21:05:01.741Z,86.19
2019-02-06T21:10:02.023Z,86.08
2019-02-06T21:15:01.473Z,86.11
2019-02-06T21:20:01.753Z,86.27
2019-02-06T21:25:02.061Z,86.08
2019-02-06T21:30:01.361Z,86.11
2019-02-06T21:35:01.646Z,85.97
2019-02-06T21:40:01.958Z,86.14
2019-02-06T21:45:01.354Z,86.25
2019-02-06T21:50:01.626Z,86.14
2019-02-06T21:55:02.230Z,85.86
2019-02-06T22:00:02.098Z,84.5
2019-02-06T22:05:01.380Z,83.92
2019-02-06T22:10:01.618Z,83.52
2019-02-06T22:15:01.882Z,82.66
2019-02-06T22:20:02.139Z,82.72
2019-02-06T22:25:01.386Z,82.7
2019-02-06T22:30:01.639Z,82.96
2019-02-06T22:35:01.922Z,83.21
2019-02-06T22:40:01.199Z,83.82
2019-02-06T22:45:01.452Z,84.48
2019-02-06T22:50:01.720Z,84.71
2019-02-06T22:55:02.002Z,84.47
2019-02-06T23:00:01.239Z,83.79
2019-02-06T23:05:01.840Z,82.95
2019-02-06T23:10:01.812Z,82.47
2019-02-06T23:15:02.104Z,82.09
2019-02-06T23:20:01.606Z,81.73
2019-02-06T23:25:01.424Z,81.48
2019-02-06T23:30:01.688Z,81.05
2019-02-06T23:35:01.976Z,80.86
2019-02-06T23:40:01.230Z,80.5
2019-02-06T23:45:01.507Z,79.22
2019-02-06T23:50:01.741Z,78.29
2019-02-06T23:55:02.005Z,77.48
